sensor_id;sensor_type;location;lat;lon;timestamp;P1;durP1;ratioP1;P2;durP2;ratioP2
5225;SDS011;2632;51.666;7.146;2024-02-26T00:00:28;3.53;;;2.20;;
5225;SDS011;2632;51.666;7.146;2024-02-26T00:02:56;3.53;;;2.77;;
5225;SDS011;2632;51.666;7.146;2024-02-26T00:05:23;3.40;;;2.70;;
5225;SDS011;2632;51.666;7.146;2024-02-26T00:07:49;5.10;;;2.70;;
5225;SDS011;2632;51.666;7.146;2024-02-26T00:10:16;3.40;;;2.90;;
5225;SDS011;2632;51.666;7.146;2024-02-26T00:12:43;3.00;;;2.60;;
5225;SDS011;2632;51.666;7.146;2024-02-26T00:15:10;3.57;;;2.90;;
5225;SDS011;2632;51.666;7.146;2024-02-26T00:17:36;3.60;;;2.60;;
5225;SDS011;2632;51.666;7.146;2024-02-26T00:20:04;3.17;;;2.30;;
5225;SDS011;2632;51.666;7.146;2024-02-26T00:22:34;4.40;;;2.80;;
5225;SDS011;2632;51.666;7.146;2024-02-26T00:25:01;5.50;;;2.90;;
5225;SDS011;2632;51.666;7.146;2024-02-26T00:27:28;4.13;;;2.70;;
5225;SDS011;2632;51.666;7.146;2024-02-26T00:29:55;3.33;;;2.67;;
5225;SDS011;2632;51.666;7.146;2024-02-26T00:32:21;4.10;;;2.53;;
5225;SDS011;2632;51.666;7.146;2024-02-26T00:34:48;5.50;;;2.70;;
5225;SDS011;2632;51.666;7.146;2024-02-26T00:37:15;3.20;;;2.37;;
5225;SDS011;2632;51.666;7.146;2024-02-26T00:39:41;3.40;;;2.40;;
5225;SDS011;2632;51.666;7.146;2024-02-26T00:42:08;2.60;;;2.40;;
5225;SDS011;2632;51.666;7.146;2024-02-26T00:44:35;3.20;;;2.90;;
5225;SDS011;2632;51.666;7.146;2024-02-26T00:47:01;4.80;;;2.63;;
5225;SDS011;2632;51.666;7.146;2024-02-26T00:49:28;2.80;;;2.50;;
5225;SDS011;2632;51.666;7.146;2024-02-26T00:51:55;4.87;;;2.80;;
5225;SDS011;2632;51.666;7.146;2024-02-26T00:54:22;4.80;;;3.13;;
5225;SDS011;2632;51.666;7.146;2024-02-26T00:56:49;4.83;;;2.80;;
5225;SDS011;2632;51.666;7.146;2024-02-26T00:59:15;4.73;;;3.20;;
5225;SDS011;2632;51.666;7.146;2024-02-26T01:01:42;3.23;;;2.93;;
5225;SDS011;2632;51.666;7.146;2024-02-26T01:04:09;6.67;;;3.07;;
5225;SDS011;2632;51.666;7.146;2024-02-26T01:06:35;6.57;;;2.73;;
5225;SDS011;2632;51.666;7.146;2024-02-26T01:09:02;3.77;;;3.07;;
5225;SDS011;2632;51.666;7.146;2024-02-26T01:11:29;2.83;;;2.53;;
5225;SDS011;2632;51.666;7.146;2024-02-26T01:13:55;4.50;;;3.00;;
5225;SDS011;2632;51.666;7.146;2024-02-26T01:16:23;3.60;;;2.93;;
5225;SDS011;2632;51.666;7.146;2024-02-26T01:18:50;3.47;;;3.00;;
5225;SDS011;2632;51.666;7.146;2024-02-26T01:21:17;3.20;;;2.90;;
5225;SDS011;2632;51.666;7.146;2024-02-26T01:23:43;3.47;;;3.03;;
5225;SDS011;2632;51.666;7.146;2024-02-26T01:26:10;2.90;;;2.53;;
5225;SDS011;2632;51.666;7.146;2024-02-26T01:28:37;5.37;;;3.40;;
5225;SDS011;2632;51.666;7.146;2024-02-26T01:31:04;2.90;;;2.60;;
5225;SDS011;2632;51.666;7.146;2024-02-26T01:33:33;3.60;;;2.87;;
5225;SDS011;2632;51.666;7.146;2024-02-26T01:36:00;4.47;;;2.80;;
5225;SDS011;2632;51.666;7.146;2024-02-26T01:38:27;2.97;;;2.70;;
5225;SDS011;2632;51.666;7.146;2024-02-26T01:40:54;4.17;;;2.87;;
5225;SDS011;2632;51.666;7.146;2024-02-26T01:43:20;2.67;;;2.43;;
5225;SDS011;2632;51.666;7.146;2024-02-26T01:45:47;2.67;;;2.47;;
5225;SDS011;2632;51.666;7.146;2024-02-26T01:48:14;3.33;;;2.53;;
5225;SDS011;2632;51.666;7.146;2024-02-26T01:50:41;5.33;;;2.80;;
5225;SDS011;2632;51.666;7.146;2024-02-26T01:53:08;3.00;;;2.70;;
5225;SDS011;2632;51.666;7.146;2024-02-26T01:55:35;3.33;;;2.43;;
5225;SDS011;2632;51.666;7.146;2024-02-26T01:58:02;3.80;;;2.97;;
5225;SDS011;2632;51.666;7.146;2024-02-26T02:00:29;7.90;;;3.00;;
5225;SDS011;2632;51.666;7.146;2024-02-26T02:02:57;2.70;;;2.40;;
5225;SDS011;2632;51.666;7.146;2024-02-26T02:05:23;4.10;;;2.83;;
5225;SDS011;2632;51.666;7.146;2024-02-26T02:07:52;2.80;;;2.60;;
5225;SDS011;2632;51.666;7.146;2024-02-26T02:10:19;2.90;;;2.63;;
5225;SDS011;2632;51.666;7.146;2024-02-26T02:12:51;3.13;;;2.60;;
5225;SDS011;2632;51.666;7.146;2024-02-26T02:15:18;2.97;;;2.67;;
5225;SDS011;2632;51.666;7.146;2024-02-26T02:17:45;3.77;;;2.97;;
5225;SDS011;2632;51.666;7.146;2024-02-26T02:20:15;4.13;;;3.07;;
5225;SDS011;2632;51.666;7.146;2024-02-26T02:22:46;5.20;;;2.93;;
5225;SDS011;2632;51.666;7.146;2024-02-26T02:25:13;3.93;;;2.90;;
5225;SDS011;2632;51.666;7.146;2024-02-26T02:27:40;2.93;;;2.60;;
5225;SDS011;2632;51.666;7.146;2024-02-26T02:30:08;2.73;;;2.50;;
5225;SDS011;2632;51.666;7.146;2024-02-26T02:32:37;8.53;;;2.50;;
5225;SDS011;2632;51.666;7.146;2024-02-26T02:35:06;2.97;;;2.67;;
5225;SDS011;2632;51.666;7.146;2024-02-26T02:37:33;3.50;;;2.80;;
5225;SDS011;2632;51.666;7.146;2024-02-26T02:40:00;3.17;;;2.60;;
5225;SDS011;2632;51.666;7.146;2024-02-26T02:42:27;2.63;;;2.43;;
5225;SDS011;2632;51.666;7.146;2024-02-26T02:44:54;4.23;;;2.50;;
5225;SDS011;2632;51.666;7.146;2024-02-26T02:47:20;2.80;;;2.50;;
5225;SDS011;2632;51.666;7.146;2024-02-26T02:49:47;5.40;;;2.80;;
5225;SDS011;2632;51.666;7.146;2024-02-26T02:52:14;3.87;;;2.10;;
5225;SDS011;2632;51.666;7.146;2024-02-26T02:54:40;3.43;;;2.60;;
5225;SDS011;2632;51.666;7.146;2024-02-26T02:57:08;2.90;;;2.67;;
5225;SDS011;2632;51.666;7.146;2024-02-26T02:59:36;2.70;;;2.50;;
5225;SDS011;2632;51.666;7.146;2024-02-26T03:02:03;4.23;;;2.47;;
5225;SDS011;2632;51.666;7.146;2024-02-26T03:04:31;2.60;;;2.40;;
5225;SDS011;2632;51.666;7.146;2024-02-26T03:06:58;2.77;;;2.57;;
5225;SDS011;2632;51.666;7.146;2024-02-26T03:09:24;4.03;;;2.83;;
5225;SDS011;2632;51.666;7.146;2024-02-26T03:11:51;2.83;;;2.63;;
5225;SDS011;2632;51.666;7.146;2024-02-26T03:14:18;2.87;;;2.67;;
5225;SDS011;2632;51.666;7.146;2024-02-26T03:16:44;3.93;;;2.60;;
5225;SDS011;2632;51.666;7.146;2024-02-26T03:19:13;2.80;;;2.57;;
5225;SDS011;2632;51.666;7.146;2024-02-26T03:21:42;2.57;;;2.37;;
5225;SDS011;2632;51.666;7.146;2024-02-26T03:24:09;2.40;;;2.20;;
5225;SDS011;2632;51.666;7.146;2024-02-26T03:26:36;3.97;;;2.00;;
5225;SDS011;2632;51.666;7.146;2024-02-26T03:29:04;2.40;;;2.00;;
5225;SDS011;2632;51.666;7.146;2024-02-26T03:31:31;4.37;;;2.03;;
5225;SDS011;2632;51.666;7.146;2024-02-26T03:33:57;2.50;;;2.27;;
5225;SDS011;2632;51.666;7.146;2024-02-26T03:36:24;2.30;;;2.10;;
5225;SDS011;2632;51.666;7.146;2024-02-26T03:38:51;2.10;;;2.00;;
5225;SDS011;2632;51.666;7.146;2024-02-26T03:41:18;2.23;;;2.07;;
5225;SDS011;2632;51.666;7.146;2024-02-26T03:43:44;3.67;;;2.30;;
5225;SDS011;2632;51.666;7.146;2024-02-26T03:46:11;2.90;;;2.33;;
5225;SDS011;2632;51.666;7.146;2024-02-26T03:48:40;2.27;;;1.53;;
5225;SDS011;2632;51.666;7.146;2024-02-26T03:51:11;2.63;;;2.33;;
5225;SDS011;2632;51.666;7.146;2024-02-26T03:53:37;2.03;;;1.93;;
5225;SDS011;2632;51.666;7.146;2024-02-26T03:56:04;1.93;;;1.83;;
5225;SDS011;2632;51.666;7.146;2024-02-26T03:58:32;2.40;;;1.77;;
5225;SDS011;2632;51.666;7.146;2024-02-26T04:00:59;2.10;;;2.00;;
5225;SDS011;2632;51.666;7.146;2024-02-26T04:03:26;2.93;;;2.23;;
5225;SDS011;2632;51.666;7.146;2024-02-26T04:05:53;4.40;;;1.83;;
5225;SDS011;2632;51.666;7.146;2024-02-26T04:08:20;2.70;;;2.50;;
5225;SDS011;2632;51.666;7.146;2024-02-26T04:10:47;2.80;;;2.33;;
5225;SDS011;2632;51.666;7.146;2024-02-26T04:13:14;2.40;;;2.20;;
5225;SDS011;2632;51.666;7.146;2024-02-26T04:15:40;3.00;;;2.70;;
5225;SDS011;2632;51.666;7.146;2024-02-26T04:18:07;3.90;;;2.40;;
5225;SDS011;2632;51.666;7.146;2024-02-26T04:20:34;3.63;;;2.80;;
5225;SDS011;2632;51.666;7.146;2024-02-26T04:23:02;3.37;;;2.60;;
5225;SDS011;2632;51.666;7.146;2024-02-26T04:25:29;2.40;;;2.20;;
5225;SDS011;2632;51.666;7.146;2024-02-26T04:27:55;2.93;;;2.43;;
5225;SDS011;2632;51.666;7.146;2024-02-26T04:30:22;2.80;;;2.60;;
5225;SDS011;2632;51.666;7.146;2024-02-26T04:32:49;2.50;;;2.20;;
5225;SDS011;2632;51.666;7.146;2024-02-26T04:35:16;3.23;;;2.87;;
5225;SDS011;2632;51.666;7.146;2024-02-26T04:37:43;3.40;;;2.60;;
5225;SDS011;2632;51.666;7.146;2024-02-26T04:40:09;2.93;;;2.63;;
5225;SDS011;2632;51.666;7.146;2024-02-26T04:42:36;3.30;;;2.70;;
5225;SDS011;2632;51.666;7.146;2024-02-26T04:45:03;2.43;;;2.23;;
5225;SDS011;2632;51.666;7.146;2024-02-26T04:47:30;3.43;;;2.87;;
5225;SDS011;2632;51.666;7.146;2024-02-26T04:49:56;3.27;;;3.03;;
5225;SDS011;2632;51.666;7.146;2024-02-26T04:52:23;2.53;;;2.33;;
5225;SDS011;2632;51.666;7.146;2024-02-26T04:54:51;3.83;;;3.07;;
5225;SDS011;2632;51.666;7.146;2024-02-26T04:57:18;5.17;;;2.73;;
5225;SDS011;2632;51.666;7.146;2024-02-26T04:59:45;3.40;;;2.77;;
5225;SDS011;2632;51.666;7.146;2024-02-26T05:02:12;2.80;;;2.33;;
5225;SDS011;2632;51.666;7.146;2024-02-26T05:04:39;2.90;;;2.57;;
5225;SDS011;2632;51.666;7.146;2024-02-26T05:07:06;2.80;;;2.43;;
5225;SDS011;2632;51.666;7.146;2024-02-26T05:09:33;3.23;;;2.70;;
5225;SDS011;2632;51.666;7.146;2024-02-26T05:11:59;3.97;;;2.87;;
5225;SDS011;2632;51.666;7.146;2024-02-26T05:14:26;3.33;;;2.73;;
5225;SDS011;2632;51.666;7.146;2024-02-26T05:16:53;4.17;;;2.90;;
5225;SDS011;2632;51.666;7.146;2024-02-26T05:19:19;2.77;;;2.47;;
5225;SDS011;2632;51.666;7.146;2024-02-26T05:21:46;3.30;;;2.80;;
5225;SDS011;2632;51.666;7.146;2024-02-26T05:24:15;2.57;;;2.37;;
5225;SDS011;2632;51.666;7.146;2024-02-26T05:26:43;3.33;;;2.90;;
5225;SDS011;2632;51.666;7.146;2024-02-26T05:29:11;5.60;;;3.03;;
5225;SDS011;2632;51.666;7.146;2024-02-26T05:31:37;5.87;;;2.87;;
5225;SDS011;2632;51.666;7.146;2024-02-26T05:34:04;3.07;;;2.57;;
5225;SDS011;2632;51.666;7.146;2024-02-26T05:36:31;3.60;;;2.37;;
5225;SDS011;2632;51.666;7.146;2024-02-26T05:39:00;3.03;;;2.73;;
5225;SDS011;2632;51.666;7.146;2024-02-26T05:41:27;3.20;;;2.90;;
5225;SDS011;2632;51.666;7.146;2024-02-26T05:43:53;3.90;;;2.50;;
5225;SDS011;2632;51.666;7.146;2024-02-26T05:46:20;3.93;;;2.90;;
5225;SDS011;2632;51.666;7.146;2024-02-26T05:48:48;4.00;;;2.40;;
5225;SDS011;2632;51.666;7.146;2024-02-26T05:51:17;3.97;;;2.67;;
5225;SDS011;2632;51.666;7.146;2024-02-26T05:53:43;3.13;;;2.80;;
5225;SDS011;2632;51.666;7.146;2024-02-26T05:56:10;3.63;;;3.07;;
5225;SDS011;2632;51.666;7.146;2024-02-26T05:58:37;4.47;;;2.40;;
5225;SDS011;2632;51.666;7.146;2024-02-26T06:01:04;3.10;;;2.20;;
5225;SDS011;2632;51.666;7.146;2024-02-26T06:03:30;2.90;;;2.60;;
5225;SDS011;2632;51.666;7.146;2024-02-26T06:05:57;4.43;;;2.33;;
5225;SDS011;2632;51.666;7.146;2024-02-26T06:08:24;4.83;;;2.70;;
5225;SDS011;2632;51.666;7.146;2024-02-26T06:10:51;5.50;;;2.87;;
5225;SDS011;2632;51.666;7.146;2024-02-26T06:13:17;2.67;;;2.27;;
5225;SDS011;2632;51.666;7.146;2024-02-26T06:15:44;3.03;;;2.73;;
5225;SDS011;2632;51.666;7.146;2024-02-26T06:18:11;3.83;;;2.80;;
5225;SDS011;2632;51.666;7.146;2024-02-26T06:20:38;6.50;;;2.83;;
5225;SDS011;2632;51.666;7.146;2024-02-26T06:23:04;3.97;;;3.17;;
5225;SDS011;2632;51.666;7.146;2024-02-26T06:25:31;5.30;;;3.10;;
5225;SDS011;2632;51.666;7.146;2024-02-26T06:27:57;4.70;;;3.17;;
5225;SDS011;2632;51.666;7.146;2024-02-26T06:30:24;5.20;;;2.90;;
5225;SDS011;2632;51.666;7.146;2024-02-26T06:32:51;9.10;;;3.17;;
5225;SDS011;2632;51.666;7.146;2024-02-26T06:35:17;4.50;;;3.13;;
5225;SDS011;2632;51.666;7.146;2024-02-26T06:37:44;3.67;;;2.60;;
5225;SDS011;2632;51.666;7.146;2024-02-26T06:40:11;4.43;;;3.00;;
5225;SDS011;2632;51.666;7.146;2024-02-26T06:42:38;4.70;;;3.13;;
5225;SDS011;2632;51.666;7.146;2024-02-26T06:45:05;2.80;;;2.60;;
5225;SDS011;2632;51.666;7.146;2024-02-26T06:47:33;3.20;;;2.90;;
5225;SDS011;2632;51.666;7.146;2024-02-26T06:50:00;5.03;;;3.30;;
5225;SDS011;2632;51.666;7.146;2024-02-26T06:52:27;3.27;;;2.93;;
5225;SDS011;2632;51.666;7.146;2024-02-26T06:54:54;4.10;;;3.10;;
5225;SDS011;2632;51.666;7.146;2024-02-26T06:57:20;3.77;;;3.37;;
5225;SDS011;2632;51.666;7.146;2024-02-26T06:59:47;3.53;;;2.70;;
5225;SDS011;2632;51.666;7.146;2024-02-26T07:02:14;3.33;;;3.00;;
5225;SDS011;2632;51.666;7.146;2024-02-26T07:04:42;4.43;;;2.70;;
5225;SDS011;2632;51.666;7.146;2024-02-26T07:07:09;3.23;;;2.90;;
5225;SDS011;2632;51.666;7.146;2024-02-26T07:09:36;3.80;;;2.60;;
5225;SDS011;2632;51.666;7.146;2024-02-26T07:12:03;3.30;;;2.60;;
5225;SDS011;2632;51.666;7.146;2024-02-26T07:14:30;6.27;;;2.73;;
5225;SDS011;2632;51.666;7.146;2024-02-26T07:16:57;3.80;;;2.70;;
5225;SDS011;2632;51.666;7.146;2024-02-26T07:19:24;3.40;;;2.80;;
5225;SDS011;2632;51.666;7.146;2024-02-26T07:21:51;4.13;;;3.23;;
5225;SDS011;2632;51.666;7.146;2024-02-26T07:24:17;3.40;;;2.70;;
5225;SDS011;2632;51.666;7.146;2024-02-26T07:26:44;3.57;;;2.97;;
5225;SDS011;2632;51.666;7.146;2024-02-26T07:29:11;2.87;;;2.50;;
5225;SDS011;2632;51.666;7.146;2024-02-26T07:31:38;7.40;;;2.27;;
5225;SDS011;2632;51.666;7.146;2024-02-26T07:34:04;3.37;;;3.00;;
5225;SDS011;2632;51.666;7.146;2024-02-26T07:36:31;2.70;;;2.50;;
5225;SDS011;2632;51.666;7.146;2024-02-26T07:38:58;3.60;;;2.50;;
5225;SDS011;2632;51.666;7.146;2024-02-26T07:41:25;2.33;;;2.10;;
5225;SDS011;2632;51.666;7.146;2024-02-26T07:43:52;4.43;;;2.40;;
5225;SDS011;2632;51.666;7.146;2024-02-26T07:46:18;2.80;;;2.50;;
5225;SDS011;2632;51.666;7.146;2024-02-26T07:48:45;2.87;;;2.63;;
5225;SDS011;2632;51.666;7.146;2024-02-26T07:51:12;3.30;;;2.77;;
5225;SDS011;2632;51.666;7.146;2024-02-26T07:53:40;3.63;;;2.77;;
5225;SDS011;2632;51.666;7.146;2024-02-26T07:56:07;4.17;;;2.70;;
5225;SDS011;2632;51.666;7.146;2024-02-26T07:58:34;2.57;;;2.37;;
5225;SDS011;2632;51.666;7.146;2024-02-26T08:01:01;4.53;;;2.30;;
5225;SDS011;2632;51.666;7.146;2024-02-26T08:03:28;2.53;;;2.33;;
5225;SDS011;2632;51.666;7.146;2024-02-26T08:05:55;2.70;;;2.50;;
5225;SDS011;2632;51.666;7.146;2024-02-26T08:08:22;2.73;;;2.10;;
5225;SDS011;2632;51.666;7.146;2024-02-26T08:10:49;2.40;;;2.20;;
5225;SDS011;2632;51.666;7.146;2024-02-26T08:13:16;5.87;;;2.43;;
5225;SDS011;2632;51.666;7.146;2024-02-26T08:15:43;2.43;;;2.23;;
5225;SDS011;2632;51.666;7.146;2024-02-26T08:18:09;2.30;;;2.10;;
5225;SDS011;2632;51.666;7.146;2024-02-26T08:20:36;2.97;;;2.67;;
5225;SDS011;2632;51.666;7.146;2024-02-26T08:23:03;2.43;;;2.23;;
5225;SDS011;2632;51.666;7.146;2024-02-26T08:25:30;2.77;;;2.37;;
5225;SDS011;2632;51.666;7.146;2024-02-26T08:27:57;5.37;;;2.27;;
5225;SDS011;2632;51.666;7.146;2024-02-26T08:30:23;2.60;;;2.20;;
5225;SDS011;2632;51.666;7.146;2024-02-26T08:32:50;4.67;;;1.97;;
5225;SDS011;2632;51.666;7.146;2024-02-26T08:35:19;3.30;;;1.90;;
5225;SDS011;2632;51.666;7.146;2024-02-26T08:37:46;5.27;;;1.97;;
5225;SDS011;2632;51.666;7.146;2024-02-26T08:40:14;2.70;;;2.10;;
5225;SDS011;2632;51.666;7.146;2024-02-26T08:42:41;3.10;;;2.33;;
5225;SDS011;2632;51.666;7.146;2024-02-26T08:45:08;2.50;;;2.30;;
5225;SDS011;2632;51.666;7.146;2024-02-26T08:47:35;2.23;;;2.10;;
5225;SDS011;2632;51.666;7.146;2024-02-26T08:50:02;5.27;;;2.17;;
5225;SDS011;2632;51.666;7.146;2024-02-26T08:52:30;2.93;;;2.30;;
5225;SDS011;2632;51.666;7.146;2024-02-26T08:54:57;8.40;;;2.40;;
5225;SDS011;2632;51.666;7.146;2024-02-26T08:57:24;3.53;;;2.33;;
5225;SDS011;2632;51.666;7.146;2024-02-26T08:59:53;2.47;;;2.07;;
5225;SDS011;2632;51.666;7.146;2024-02-26T09:02:19;2.60;;;2.13;;
5225;SDS011;2632;51.666;7.146;2024-02-26T09:04:46;4.60;;;2.40;;
5225;SDS011;2632;51.666;7.146;2024-02-26T09:07:13;5.17;;;2.37;;
5225;SDS011;2632;51.666;7.146;2024-02-26T09:09:39;2.37;;;2.07;;
5225;SDS011;2632;51.666;7.146;2024-02-26T09:12:06;2.40;;;2.20;;
5225;SDS011;2632;51.666;7.146;2024-02-26T09:14:33;4.20;;;2.20;;
5225;SDS011;2632;51.666;7.146;2024-02-26T09:17:00;1.97;;;1.77;;
5225;SDS011;2632;51.666;7.146;2024-02-26T09:19:26;4.53;;;2.20;;
5225;SDS011;2632;51.666;7.146;2024-02-26T09:21:56;3.53;;;2.77;;
5225;SDS011;2632;51.666;7.146;2024-02-26T09:24:24;2.47;;;2.27;;
5225;SDS011;2632;51.666;7.146;2024-02-26T09:26:52;2.33;;;2.00;;
5225;SDS011;2632;51.666;7.146;2024-02-26T09:29:18;7.40;;;2.57;;
5225;SDS011;2632;51.666;7.146;2024-02-26T09:31:45;4.03;;;2.33;;
5225;SDS011;2632;51.666;7.146;2024-02-26T09:34:13;3.00;;;2.60;;
5225;SDS011;2632;51.666;7.146;2024-02-26T09:36:41;3.93;;;2.80;;
5225;SDS011;2632;51.666;7.146;2024-02-26T09:39:07;3.43;;;2.50;;
5225;SDS011;2632;51.666;7.146;2024-02-26T09:41:37;2.77;;;2.57;;
5225;SDS011;2632;51.666;7.146;2024-02-26T09:44:07;4.80;;;2.73;;
5225;SDS011;2632;51.666;7.146;2024-02-26T09:46:35;2.93;;;2.63;;
5225;SDS011;2632;51.666;7.146;2024-02-26T09:49:02;3.87;;;2.57;;
5225;SDS011;2632;51.666;7.146;2024-02-26T09:51:29;4.33;;;2.70;;
5225;SDS011;2632;51.666;7.146;2024-02-26T09:53:59;3.83;;;2.77;;
5225;SDS011;2632;51.666;7.146;2024-02-26T09:56:29;4.50;;;2.90;;
5225;SDS011;2632;51.666;7.146;2024-02-26T09:58:58;5.30;;;3.00;;
5225;SDS011;2632;51.666;7.146;2024-02-26T10:01:26;2.63;;;2.23;;
5225;SDS011;2632;51.666;7.146;2024-02-26T10:03:56;4.37;;;3.10;;
5225;SDS011;2632;51.666;7.146;2024-02-26T10:06:25;2.50;;;2.30;;
5225;SDS011;2632;51.666;7.146;2024-02-26T10:08:53;3.00;;;2.70;;
5225;SDS011;2632;51.666;7.146;2024-02-26T10:11:20;4.77;;;2.80;;
5225;SDS011;2632;51.666;7.146;2024-02-26T10:13:48;3.70;;;2.83;;
5225;SDS011;2632;51.666;7.146;2024-02-26T10:16:15;4.30;;;2.97;;
5225;SDS011;2632;51.666;7.146;2024-02-26T10:18:49;4.90;;;3.40;;
5225;SDS011;2632;51.666;7.146;2024-02-26T10:21:25;3.70;;;2.93;;
5225;SDS011;2632;51.666;7.146;2024-02-26T10:23:52;5.47;;;2.97;;
5225;SDS011;2632;51.666;7.146;2024-02-26T10:26:19;4.80;;;3.20;;
5225;SDS011;2632;51.666;7.146;2024-02-26T10:28:46;3.50;;;3.10;;
5225;SDS011;2632;51.666;7.146;2024-02-26T10:31:18;3.97;;;3.03;;
5225;SDS011;2632;51.666;7.146;2024-02-26T10:33:45;4.00;;;3.07;;
5225;SDS011;2632;51.666;7.146;2024-02-26T10:36:12;4.47;;;3.30;;
5225;SDS011;2632;51.666;7.146;2024-02-26T10:38:39;5.17;;;3.37;;
5225;SDS011;2632;51.666;7.146;2024-02-26T10:41:06;4.20;;;3.40;;
5225;SDS011;2632;51.666;7.146;2024-02-26T10:43:34;4.33;;;3.70;;
5225;SDS011;2632;51.666;7.146;2024-02-26T10:46:01;6.33;;;4.40;;
5225;SDS011;2632;51.666;7.146;2024-02-26T10:48:28;5.00;;;3.73;;
5225;SDS011;2632;51.666;7.146;2024-02-26T10:50:55;4.43;;;3.23;;
5225;SDS011;2632;51.666;7.146;2024-02-26T10:53:23;5.90;;;3.60;;
5225;SDS011;2632;51.666;7.146;2024-02-26T10:56:01;6.07;;;3.83;;
5225;SDS011;2632;51.666;7.146;2024-02-26T10:58:29;4.80;;;3.83;;
5225;SDS011;2632;51.666;7.146;2024-02-26T11:00:58;7.30;;;3.80;;
5225;SDS011;2632;51.666;7.146;2024-02-26T11:03:25;5.40;;;3.67;;
5225;SDS011;2632;51.666;7.146;2024-02-26T11:05:53;5.43;;;3.90;;
5225;SDS011;2632;51.666;7.146;2024-02-26T11:08:21;5.83;;;4.17;;
5225;SDS011;2632;51.666;7.146;2024-02-26T11:10:50;5.50;;;4.27;;
5225;SDS011;2632;51.666;7.146;2024-02-26T11:13:21;5.20;;;3.87;;
5225;SDS011;2632;51.666;7.146;2024-02-26T11:15:52;6.83;;;4.47;;
5225;SDS011;2632;51.666;7.146;2024-02-26T11:18:20;7.57;;;4.70;;
5225;SDS011;2632;51.666;7.146;2024-02-26T11:20:49;7.10;;;4.80;;
5225;SDS011;2632;51.666;7.146;2024-02-26T11:23:17;8.20;;;4.87;;
5225;SDS011;2632;51.666;7.146;2024-02-26T11:25:44;7.20;;;4.77;;
5225;SDS011;2632;51.666;7.146;2024-02-26T11:28:14;7.87;;;5.20;;
5225;SDS011;2632;51.666;7.146;2024-02-26T11:30:44;8.20;;;5.30;;
5225;SDS011;2632;51.666;7.146;2024-02-26T11:33:13;8.07;;;5.20;;
5225;SDS011;2632;51.666;7.146;2024-02-26T11:35:41;8.00;;;5.20;;
5225;SDS011;2632;51.666;7.146;2024-02-26T11:38:08;8.70;;;5.40;;
5225;SDS011;2632;51.666;7.146;2024-02-26T11:40:44;7.60;;;5.23;;
5225;SDS011;2632;51.666;7.146;2024-02-26T11:43:11;8.40;;;5.30;;
5225;SDS011;2632;51.666;7.146;2024-02-26T11:48:11;10.37;;;5.87;;
5225;SDS011;2632;51.666;7.146;2024-02-26T11:50:39;8.97;;;5.77;;
5225;SDS011;2632;51.666;7.146;2024-02-26T11:53:20;10.17;;;5.50;;
5225;SDS011;2632;51.666;7.146;2024-02-26T11:58:43;7.50;;;5.33;;
5225;SDS011;2632;51.666;7.146;2024-02-26T12:04:11;9.80;;;6.47;;
5225;SDS011;2632;51.666;7.146;2024-02-26T12:06:41;9.53;;;5.40;;
5225;SDS011;2632;51.666;7.146;2024-02-26T12:09:09;6.70;;;5.20;;
5225;SDS011;2632;51.666;7.146;2024-02-26T12:11:37;8.60;;;5.70;;
5225;SDS011;2632;51.666;7.146;2024-02-26T12:14:07;7.20;;;5.17;;
5225;SDS011;2632;51.666;7.146;2024-02-26T12:16:38;10.07;;;5.37;;
5225;SDS011;2632;51.666;7.146;2024-02-26T12:19:06;8.00;;;5.43;;
5225;SDS011;2632;51.666;7.146;2024-02-26T12:21:35;7.07;;;4.83;;
5225;SDS011;2632;51.666;7.146;2024-02-26T12:24:09;8.67;;;5.80;;
5225;SDS011;2632;51.666;7.146;2024-02-26T12:26:40;7.67;;;4.87;;
5225;SDS011;2632;51.666;7.146;2024-02-26T12:29:07;7.40;;;5.27;;
5225;SDS011;2632;51.666;7.146;2024-02-26T12:31:34;8.93;;;4.77;;
5225;SDS011;2632;51.666;7.146;2024-02-26T12:34:03;5.87;;;4.30;;
5225;SDS011;2632;51.666;7.146;2024-02-26T12:36:31;7.87;;;5.10;;
5225;SDS011;2632;51.666;7.146;2024-02-26T12:39:00;6.70;;;4.90;;
5225;SDS011;2632;51.666;7.146;2024-02-26T12:41:28;6.70;;;5.10;;
5225;SDS011;2632;51.666;7.146;2024-02-26T12:43:58;5.63;;;4.33;;
5225;SDS011;2632;51.666;7.146;2024-02-26T12:46:25;7.27;;;5.27;;
5225;SDS011;2632;51.666;7.146;2024-02-26T12:48:51;5.87;;;4.73;;
5225;SDS011;2632;51.666;7.146;2024-02-26T12:51:22;6.30;;;4.57;;
5225;SDS011;2632;51.666;7.146;2024-02-26T12:53:49;5.37;;;4.07;;
5225;SDS011;2632;51.666;7.146;2024-02-26T12:56:18;6.80;;;4.30;;
5225;SDS011;2632;51.666;7.146;2024-02-26T12:58:45;6.43;;;4.10;;
5225;SDS011;2632;51.666;7.146;2024-02-26T13:01:14;5.83;;;4.00;;
5225;SDS011;2632;51.666;7.146;2024-02-26T13:03:43;5.93;;;3.90;;
5225;SDS011;2632;51.666;7.146;2024-02-26T13:06:10;6.03;;;4.50;;
5225;SDS011;2632;51.666;7.146;2024-02-26T13:08:37;5.87;;;4.50;;
5225;SDS011;2632;51.666;7.146;2024-02-26T13:11:04;5.70;;;4.30;;
5225;SDS011;2632;51.666;7.146;2024-02-26T13:13:31;6.83;;;4.03;;
5225;SDS011;2632;51.666;7.146;2024-02-26T13:16:05;5.93;;;3.87;;
5225;SDS011;2632;51.666;7.146;2024-02-26T13:18:34;4.20;;;3.77;;
5225;SDS011;2632;51.666;7.146;2024-02-26T13:21:09;5.20;;;4.30;;
5225;SDS011;2632;51.666;7.146;2024-02-26T13:23:40;9.80;;;4.30;;
5225;SDS011;2632;51.666;7.146;2024-02-26T13:26:07;4.17;;;3.53;;
5225;SDS011;2632;51.666;7.146;2024-02-26T13:28:37;6.07;;;4.07;;
5225;SDS011;2632;51.666;7.146;2024-02-26T13:31:04;4.73;;;4.00;;
5225;SDS011;2632;51.666;7.146;2024-02-26T13:33:33;4.73;;;3.07;;
5225;SDS011;2632;51.666;7.146;2024-02-26T13:36:01;3.90;;;3.40;;
5225;SDS011;2632;51.666;7.146;2024-02-26T13:38:29;4.80;;;4.10;;
5225;SDS011;2632;51.666;7.146;2024-02-26T13:40:55;5.80;;;4.20;;
5225;SDS011;2632;51.666;7.146;2024-02-26T13:43:22;4.50;;;3.50;;
5225;SDS011;2632;51.666;7.146;2024-02-26T13:45:49;7.63;;;4.10;;
5225;SDS011;2632;51.666;7.146;2024-02-26T13:48:16;5.47;;;3.70;;
5225;SDS011;2632;51.666;7.146;2024-02-26T13:50:43;5.53;;;4.27;;
5225;SDS011;2632;51.666;7.146;2024-02-26T13:53:12;6.13;;;3.87;;
5225;SDS011;2632;51.666;7.146;2024-02-26T13:55:40;5.20;;;3.97;;
5225;SDS011;2632;51.666;7.146;2024-02-26T13:58:13;4.77;;;3.70;;
5225;SDS011;2632;51.666;7.146;2024-02-26T14:00:41;6.90;;;3.60;;
5225;SDS011;2632;51.666;7.146;2024-02-26T14:03:09;5.77;;;3.67;;
5225;SDS011;2632;51.666;7.146;2024-02-26T14:05:36;5.53;;;3.60;;
5225;SDS011;2632;51.666;7.146;2024-02-26T14:08:03;3.93;;;3.57;;
5225;SDS011;2632;51.666;7.146;2024-02-26T14:10:30;6.03;;;4.00;;
5225;SDS011;2632;51.666;7.146;2024-02-26T14:12:58;4.77;;;3.90;;
5225;SDS011;2632;51.666;7.146;2024-02-26T14:15:25;5.10;;;3.80;;
5225;SDS011;2632;51.666;7.146;2024-02-26T14:17:52;6.30;;;3.87;;
5225;SDS011;2632;51.666;7.146;2024-02-26T14:20:25;4.67;;;3.87;;
5225;SDS011;2632;51.666;7.146;2024-02-26T14:22:52;5.17;;;3.93;;
5225;SDS011;2632;51.666;7.146;2024-02-26T14:25:23;4.70;;;3.60;;
5225;SDS011;2632;51.666;7.146;2024-02-26T14:27:54;5.07;;;3.83;;
5225;SDS011;2632;51.666;7.146;2024-02-26T14:30:20;4.97;;;3.50;;
5225;SDS011;2632;51.666;7.146;2024-02-26T14:32:47;4.60;;;3.30;;
5225;SDS011;2632;51.666;7.146;2024-02-26T14:35:14;4.97;;;3.33;;
5225;SDS011;2632;51.666;7.146;2024-02-26T14:37:43;7.53;;;3.77;;
5225;SDS011;2632;51.666;7.146;2024-02-26T14:40:15;4.07;;;2.83;;
5225;SDS011;2632;51.666;7.146;2024-02-26T14:42:42;3.40;;;3.10;;
5225;SDS011;2632;51.666;7.146;2024-02-26T14:45:09;4.30;;;3.33;;
5225;SDS011;2632;51.666;7.146;2024-02-26T14:47:37;4.00;;;3.10;;
5225;SDS011;2632;51.666;7.146;2024-02-26T14:50:05;3.57;;;3.07;;
5225;SDS011;2632;51.666;7.146;2024-02-26T14:52:32;3.03;;;2.73;;
5225;SDS011;2632;51.666;7.146;2024-02-26T14:54:58;4.60;;;2.70;;
5225;SDS011;2632;51.666;7.146;2024-02-26T14:57:25;7.30;;;2.73;;
5225;SDS011;2632;51.666;7.146;2024-02-26T14:59:52;5.20;;;3.10;;
5225;SDS011;2632;51.666;7.146;2024-02-26T15:02:18;5.00;;;3.47;;
5225;SDS011;2632;51.666;7.146;2024-02-26T15:04:45;3.90;;;3.33;;
5225;SDS011;2632;51.666;7.146;2024-02-26T15:07:13;4.20;;;3.50;;
5225;SDS011;2632;51.666;7.146;2024-02-26T15:09:42;5.53;;;3.93;;
5225;SDS011;2632;51.666;7.146;2024-02-26T15:12:08;5.40;;;3.33;;
5225;SDS011;2632;51.666;7.146;2024-02-26T15:14:36;4.67;;;3.53;;
5225;SDS011;2632;51.666;7.146;2024-02-26T15:17:03;5.50;;;3.70;;
5225;SDS011;2632;51.666;7.146;2024-02-26T15:19:29;5.07;;;3.40;;
5225;SDS011;2632;51.666;7.146;2024-02-26T15:21:56;3.93;;;3.47;;
5225;SDS011;2632;51.666;7.146;2024-02-26T15:24:23;6.90;;;4.20;;